createdAt,value
2022-11-08T00:05:01.937Z,55.1
2022-11-08T00:10:24.088Z,55.1
2022-11-08T00:15:29.818Z,55.1
2022-11-08T00:21:07.029Z,55
2022-11-08T00:26:44.455Z,54.9
2022-11-08T00:32:06.232Z,54.9
2022-11-08T00:37:43.025Z,54.9
2022-11-08T00:43:21.364Z,54.8
2022-11-08T00:48:57.882Z,54.8
2022-11-08T00:54:34.885Z,54.8
2022-11-08T01:00:35.261Z,54.7
2022-11-08T01:06:13.125Z,54.6
2022-11-08T01:11:34.644Z,54.6
2022-11-08T01:16:56.769Z,54.6
2022-11-08T01:22:19.122Z,54.5
2022-11-08T01:27:56.391Z,54.4
2022-11-08T01:33:34.149Z,54.4
2022-11-08T01:39:12.146Z,54.4
2022-11-08T01:44:18.025Z,54.3
2022-11-08T01:49:57.109Z,54.3
2022-11-08T01:55:18.884Z,54.3
2022-11-08T02:00:54.633Z,54.3
2022-11-08T02:06:32.734Z,54.2
2022-11-08T02:11:53.213Z,54.1
2022-11-08T02:17:35.779Z,54.1
2022-11-08T02:22:58.343Z,54.1
2022-11-08T02:28:35.893Z,54
2022-11-08T02:33:56.476Z,53.9
2022-11-08T02:39:34.505Z,53.9
2022-11-08T02:45:12.161Z,53.9
2022-11-08T02:50:50.648Z,53.8
2022-11-08T02:56:28.648Z,53.8
2022-11-08T03:01:49.802Z,53.7
2022-11-08T03:12:34.945Z,53.6
2022-11-08T03:18:12.723Z,53.6
2022-11-08T03:23:54.090Z,53.6
2022-11-08T03:29:32.573Z,53.5
2022-11-08T03:34:53.314Z,53.5
2022-11-08T03:40:30.114Z,53.4
2022-11-08T03:45:52.429Z,53.4
2022-11-08T03:51:29.185Z,53.4
2022-11-08T03:57:05.905Z,53.3
2022-11-08T04:02:44.492Z,53.3
2022-11-08T04:08:06.038Z,53.2
2022-11-08T04:13:43.104Z,53.2
2022-11-08T04:19:26.144Z,53.1
2022-11-08T04:25:03.644Z,53.1
2022-11-08T04:30:25.196Z,53
2022-11-08T04:35:47.327Z,53
2022-11-08T04:41:09.570Z,52.9
2022-11-08T04:46:19.178Z,52.9
2022-11-08T04:52:03.314Z,52.9
2022-11-08T04:57:40.387Z,52.8
2022-11-08T05:02:54.372Z,52.8
2022-11-08T05:08:17.119Z,52.7
2022-11-08T05:13:59.806Z,52.6
2022-11-08T05:19:28.445Z,52.6
2022-11-08T05:25:07.027Z,52.6
2022-11-08T05:30:47.921Z,52.5
2022-11-08T05:36:24.721Z,52.5
2022-11-08T05:52:54.677Z,52.3
2022-11-08T05:58:33.267Z,52.3
2022-11-08T06:04:13.251Z,52.2
2022-11-08T06:09:55.384Z,52.1
2022-11-08T06:15:35.005Z,52.1
2022-11-08T06:21:12.421Z,52.1
2022-11-08T06:26:53.351Z,52
2022-11-08T06:43:22.809Z,51.9
2022-11-08T06:48:51.391Z,51.8
2022-11-08T06:54:34.045Z,51.8
2022-11-08T07:00:10.671Z,51.8
2022-11-08T07:05:50.542Z,51.7
2022-11-08T07:11:14.914Z,51.6
2022-11-08T07:16:51.986Z,51.6
2022-11-08T07:22:30.466Z,51.6
2022-11-08T07:28:08.056Z,51.5
2022-11-08T07:33:46.882Z,51.5
2022-11-08T07:39:09.838Z,51.4
2022-11-08T07:45:14.858Z,51.4
2022-11-08T07:50:51.315Z,51.3
2022-11-08T07:56:33.557Z,51.3
2022-11-08T08:02:11.452Z,51.3
2022-11-08T08:07:49.541Z,51.2
2022-11-08T08:13:34.295Z,51.1
2022-11-08T08:19:13.334Z,51.1
2022-11-08T08:24:35.125Z,51.1
2022-11-08T08:30:13.039Z,51
2022-11-08T08:36:25.379Z,51
2022-11-08T08:42:09.633Z,50.9
2022-11-08T08:47:49.972Z,50.9
2022-11-08T08:53:27.231Z,50.8
2022-11-08T09:06:59.992Z,50.8
2022-11-08T09:12:25.168Z,50.7
2022-11-08T09:17:47.062Z,50.6
2022-11-08T09:23:10.641Z,50.6
2022-11-08T09:28:31.989Z,50.6
2022-11-08T09:34:20.637Z,50.5
2022-11-08T09:39:49.501Z,50.4
2022-11-08T09:45:12.671Z,50.4
2022-11-08T09:50:50.534Z,50.4
2022-11-08T09:56:30.755Z,50.3
2022-11-08T10:02:14.247Z,50.3
2022-11-08T10:07:37.239Z,50.3
2022-11-08T10:13:17.144Z,50.2
2022-11-08T10:18:50.179Z,50.1
2022-11-08T10:24:28.010Z,50.1
2022-11-08T10:30:08.781Z,50.1
2022-11-08T10:35:46.088Z,50.1
2022-11-08T10:41:23.818Z,50
2022-11-08T10:47:07.290Z,49.9
2022-11-08T10:52:47.131Z,49.9
2022-11-08T10:58:24.468Z,49.9
2022-11-08T11:04:05.027Z,49.8
2022-11-08T11:09:42.501Z,49.8
2022-11-08T11:15:08.966Z,49.8
2022-11-08T11:20:47.392Z,49.7
2022-11-08T11:26:25.018Z,49.7
2022-11-08T11:32:02.464Z,49.6
2022-11-08T11:37:41.111Z,49.6
2022-11-08T11:43:45.368Z,49.5
2022-11-08T11:49:26.910Z,49.5
2022-11-08T11:55:11.084Z,49.4
2022-11-08T12:00:49.042Z,49.4
2022-11-08T12:06:30.507Z,49.4
2022-11-08T12:11:54.200Z,49.3
2022-11-08T12:17:35.564Z,49.3
2022-11-08T12:23:18.391Z,49.3
2022-11-08T12:28:58.887Z,49.2
2022-11-08T12:34:36.255Z,49.2
2022-11-08T12:40:13.381Z,49.1
2022-11-08T12:45:51.714Z,49.1
2022-11-08T12:51:34.129Z,49.1
2022-11-08T12:57:11.128Z,49
2022-11-08T13:02:50.731Z,48.9
2022-11-08T13:08:33.991Z,48.9
2022-11-08T13:14:10.583Z,48.9
2022-11-08T13:19:49.241Z,48.8
2022-11-08T13:25:50.730Z,48.8
2022-11-08T13:31:15.706Z,48.8
2022-11-08T13:36:54.034Z,48.7
2022-11-08T13:42:35.767Z,48.7
2022-11-08T13:48:13.623Z,48.6
2022-11-08T13:53:52.268Z,48.6
2022-11-08T13:59:30.405Z,48.6
2022-11-08T14:05:08.947Z,48.5
2022-11-08T14:10:55.817Z,48.4
2022-11-08T14:16:33.312Z,48.4
2022-11-08T14:22:10.334Z,48.4
2022-11-08T14:27:55.435Z,48.4
2022-11-08T14:33:39.295Z,48.3
2022-11-08T14:39:19.259Z,48.3
2022-11-08T14:44:57.840Z,48.2
2022-11-08T14:50:36.048Z,48.2
2022-11-08T14:56:04.320Z,48.1
2022-11-08T15:01:42.899Z,48.1
2022-11-08T15:07:05.167Z,48.1
2022-11-08T15:12:42.996Z,48
2022-11-08T15:18:26.751Z,48
2022-11-08T15:24:04.296Z,47.9
2022-11-08T15:29:43.971Z,47.9
2022-11-08T15:35:26.872Z,47.9
2022-11-08T15:40:53.099Z,47.8
2022-11-08T15:46:14.621Z,47.8
2022-11-08T15:51:53.085Z,47.7
2022-11-08T15:57:30.388Z,47.7
2022-11-08T16:03:08.736Z,47.6
2022-11-08T16:08:36.803Z,47.6
2022-11-08T16:19:41.774Z,47.6
2022-11-08T16:25:25.942Z,47.5
2022-11-08T16:30:47.381Z,47.4
2022-11-08T16:36:09.554Z,47.4
2022-11-08T16:41:47.519Z,47.4
2022-11-08T16:47:43.090Z,47.4
2022-11-08T16:53:21.273Z,47.3
2022-11-08T16:59:30.359Z,47.3
2022-11-08T17:04:52.606Z,47.2
2022-11-08T17:10:20.260Z,47.1
2022-11-08T17:15:59.107Z,47.1
2022-11-08T17:22:16.059Z,47.1
2022-11-08T17:27:57.906Z,47.1
2022-11-08T17:33:37.516Z,47.1
2022-11-08T17:39:15.258Z,47
2022-11-08T17:44:56.409Z,46.9
2022-11-08T17:50:34.913Z,46.9
2022-11-08T17:56:16.045Z,46.9
2022-11-08T18:01:37.736Z,46.8
2022-11-08T18:07:18.108Z,46.8
2022-11-08T18:12:59.796Z,46.8
2022-11-08T18:18:25.980Z,46.8
2022-11-08T18:23:34.273Z,46.8
2022-11-08T18:29:01.638Z,46.7
2022-11-08T18:34:44.663Z,46.7
2022-11-08T18:40:25.918Z,46.6
2022-11-08T18:46:04.127Z,46.6
2022-11-08T18:51:47.796Z,46.6
2022-11-08T18:57:25.742Z,46.5
2022-11-08T19:03:08.330Z,46.5
2022-11-08T19:08:18.448Z,46.4
2022-11-08T19:13:56.108Z,46.4
2022-11-08T19:19:17.711Z,46.4
2022-11-08T19:24:54.573Z,46.4
2022-11-08T19:30:34.999Z,46.3
2022-11-08T19:35:57.179Z,46.3
2022-11-08T19:41:39.566Z,46.3
2022-11-08T19:46:47.175Z,46.2
2022-11-08T19:52:09.847Z,46.2
2022-11-08T19:57:38.176Z,46.2
2022-11-08T20:03:01.385Z,46.1
2022-11-08T20:08:24.182Z,46.1
2022-11-08T20:13:47.160Z,46.1
2022-11-08T20:18:55.535Z,46
2022-11-08T20:24:33.155Z,47
2022-11-08T20:30:02.722Z,48.4
2022-11-08T20:35:44.907Z,50
2022-11-08T20:41:09.830Z,51.6
2022-11-08T20:46:37.806Z,53.3
2022-11-08T20:52:25.610Z,54.9
2022-11-08T20:58:08.511Z,56.6
2022-11-08T21:04:08.411Z,58.3
2022-11-08T21:12:23.862Z,59.1
2022-11-08T21:18:11.126Z,59.1
2022-11-08T21:31:12.129Z,59.1
2022-11-08T21:36:50.406Z,59
2022-11-08T21:42:27.157Z,58.9
2022-11-08T21:48:14.127Z,58.8
2022-11-08T21:53:59.344Z,58.8
2022-11-08T21:59:36.029Z,58.7
2022-11-08T22:04:43.770Z,58.7
2022-11-08T22:10:12.159Z,58.6
2022-11-08T22:26:40.931Z,58.5
2022-11-08T22:31:46.986Z,58.4
2022-11-08T22:37:12.792Z,58.4
2022-11-08T22:42:35.411Z,58.3
2022-11-08T22:47:56.985Z,58.3
2022-11-08T22:53:23.242Z,58.3
2022-11-08T22:58:14.706Z,58.2
2022-11-08T23:03:06.397Z,58.1
2022-11-08T23:08:29.145Z,58.1
2022-11-08T23:13:36.863Z,58.1
2022-11-08T23:18:42.567Z,58.1
2022-11-08T23:29:29.956Z,57.9
2022-11-08T23:34:20.646Z,57.9
2022-11-08T23:39:30.743Z,57.9
2022-11-08T23:45:07.827Z,57.8
2022-11-08T23:55:35.615Z,57.7
